Rich Fountain, Missouri
Current Conditions -  °F | °C
As of 11:53 AM on Sunday 21 Dec 2014 (Local Time) from KVIH Reporting Station
Overcast Overcast  
Wind Chill: 33°   Ceiling: 1300
Heat Index: 40°   Visibility: 9mi
Dew Point: 35°   Wind: 13mph
Humidity: 83%   Direction: 170°S
Pressure: 30.06"   Gusts: NA
Location:  38.3614°N, 91.929°W
Report Text: KVIH 211753Z AUTO 17011KT 9SM BKN013 OVC032 04/02 A3006 RMK AO2 SLP184 T00440017 10050 20033 56019
Loading
Personal Weather Stations






























Interactive Weather Map New forecast layout! Learn more

10-Day Weather Forecast

Advertisements
Track Severe Weather on mobile